createdAt,value
2022-08-07T00:01:44.540Z,3.40
2022-08-07T00:04:09.686Z,3.80
2022-08-07T00:06:45.562Z,3.10
2022-08-07T00:09:22.738Z,3.10
2022-08-07T00:11:55.910Z,3.00
2022-08-07T00:14:31.188Z,3.30
2022-08-07T00:17:01.846Z,2.60
2022-08-07T00:19:34.296Z,3.40
2022-08-07T00:22:24.584Z,4.30
2022-08-07T00:25:11.016Z,3.60
2022-08-07T00:27:52.593Z,3.60
2022-08-07T00:30:27.798Z,3.50
2022-08-07T00:33:02.108Z,3.00
2022-08-07T00:35:39.817Z,2.70
2022-08-07T00:38:07.822Z,2.40
2022-08-07T00:40:43.659Z,2.60
2022-08-07T00:44:01.080Z,3.00
2022-08-07T00:46:12.560Z,2.30
2022-08-07T00:48:49.931Z,2.60
2022-08-07T00:51:20.531Z,3.30
2022-08-07T00:53:50.757Z,2.20
2022-08-07T00:58:59.914Z,2.60
2022-08-07T01:01:28.562Z,2.90
2022-08-07T01:04:10.075Z,2.50
2022-08-07T01:06:38.937Z,2.70
2022-08-07T01:09:07.903Z,2.60
2022-08-07T01:12:28.038Z,2.80
2022-08-07T01:14:28.256Z,2.60
2022-08-07T01:16:58.638Z,3.20
2022-08-07T01:19:32.552Z,3.10
2022-08-07T01:22:03.463Z,3.10
2022-08-07T01:24:42.103Z,2.70
2022-08-07T01:27:29.618Z,2.80
2022-08-07T01:29:58.691Z,3.40
2022-08-07T01:32:29.284Z,3.30
2022-08-07T01:34:59.397Z,2.90
2022-08-07T01:37:33.955Z,3.10
2022-08-07T01:40:14.771Z,3.30
2022-08-07T01:42:57.483Z,3.20
2022-08-07T01:45:37.112Z,3.30
2022-08-07T01:48:29.193Z,3.30
2022-08-07T01:52:01.273Z,3.00
2022-08-07T01:54:11.994Z,4.00
2022-08-07T01:56:59.013Z,3.30
2022-08-07T01:59:32.880Z,3.70
2022-08-07T02:02:07.501Z,4.00
2022-08-07T02:04:56.223Z,3.60
2022-08-07T02:07:36.104Z,4.20
2022-08-07T02:10:27.069Z,3.90
2022-08-07T02:13:00.261Z,3.60
2022-08-07T02:15:39.273Z,3.80
2022-08-07T02:18:11.662Z,3.80
2022-08-07T02:20:51.983Z,3.70
2022-08-07T02:23:27.143Z,4.00
2022-08-07T02:26:31.941Z,3.70
2022-08-07T02:28:50.776Z,3.20
2022-08-07T02:31:28.928Z,3.20
2022-08-07T02:34:03.146Z,3.80
2022-08-07T02:39:42.909Z,3.50
2022-08-07T02:42:10.066Z,3.40
2022-08-07T02:44:48.762Z,3.50
2022-08-07T02:47:23.436Z,3.10
2022-08-07T02:55:27.642Z,2.60
2022-08-07T02:59:36.804Z,4.20
2022-08-07T03:02:07.107Z,3.50
2022-08-07T03:04:38.154Z,3.60
2022-08-07T03:07:10.644Z,3.40
2022-08-07T03:09:45.467Z,3.00
2022-08-07T03:12:22.413Z,3.40
2022-08-07T03:15:07.861Z,3.30
2022-08-07T03:17:53.311Z,3.20
2022-08-07T03:20:24.706Z,3.30
2022-08-07T03:22:55.122Z,3.80
2022-08-07T03:25:24.604Z,3.10
2022-08-07T03:28:09.659Z,3.30
2022-08-07T03:31:12.233Z,3.50
2022-08-07T03:33:44.645Z,3.40
2022-08-07T03:36:20.425Z,3.30
2022-08-07T03:39:05.396Z,3.70
2022-08-07T03:41:42.006Z,3.30
2022-08-07T03:44:17.149Z,3.40
2022-08-07T03:47:13.522Z,4.10
2022-08-07T03:49:47.956Z,4.20
2022-08-07T03:52:29.856Z,4.20
2022-08-07T03:55:06.476Z,4.50
2022-08-07T03:58:33.924Z,4.70
2022-08-07T04:00:33.408Z,3.60
2022-08-07T04:03:03.930Z,4.20
2022-08-07T04:05:42.448Z,3.30
2022-08-07T04:08:23.219Z,3.80
2022-08-07T04:12:21.101Z,3.50
2022-08-07T04:14:10.628Z,4.30
2022-08-07T04:16:43.015Z,3.50
2022-08-07T04:19:51.191Z,2.90
2022-08-07T04:22:17.865Z,4.00
2022-08-07T04:24:46.695Z,4.70
2022-08-07T04:27:25.116Z,4.40
2022-08-07T04:30:04.990Z,4.00
2022-08-07T04:32:58.082Z,4.10
2022-08-07T04:35:35.284Z,3.80
2022-08-07T04:38:11.573Z,4.50
2022-08-07T04:40:52.004Z,4.10
2022-08-07T04:44:09.663Z,3.30
2022-08-07T04:46:36.486Z,3.70
2022-08-07T04:49:40.126Z,3.50
2022-08-07T04:52:21.360Z,3.40
2022-08-07T04:55:15.472Z,3.30
2022-08-07T04:58:42.398Z,3.80
2022-08-07T05:01:30.879Z,3.80
2022-08-07T05:04:08.853Z,3.40
2022-08-07T05:07:21.000Z,3.40
2022-08-07T05:09:58.363Z,3.10
2022-08-07T05:12:38.673Z,3.00
2022-08-07T05:15:23.638Z,3.90
2022-08-07T05:18:08.834Z,3.10
2022-08-07T05:20:42.716Z,2.80
2022-08-07T05:23:29.039Z,2.70
2022-08-07T05:26:11.671Z,3.70
2022-08-07T05:28:48.777Z,3.20
2022-08-07T05:31:24.086Z,3.10
2022-08-07T05:34:10.881Z,3.70
2022-08-07T05:36:49.060Z,2.80
2022-08-07T05:40:14.084Z,2.40
2022-08-07T05:42:56.365Z,2.80
2022-08-07T05:45:47.017Z,2.50
2022-08-07T05:48:15.378Z,3.50
2022-08-07T05:50:47.056Z,2.90
2022-08-07T05:54:13.309Z,2.80
2022-08-07T05:56:08.692Z,2.70
2022-08-07T05:58:52.530Z,2.90
2022-08-07T06:01:26.173Z,2.10
2022-08-07T06:04:01.021Z,2.80
2022-08-07T06:06:46.105Z,2.90
2022-08-07T06:09:18.035Z,2.40
2022-08-07T06:11:51.284Z,3.50
2022-08-07T06:14:28.577Z,3.20
2022-08-07T06:17:01.245Z,3.00
2022-08-07T06:19:58.113Z,3.30
2022-08-07T06:22:38.353Z,3.00
2022-08-07T06:25:17.582Z,2.90
2022-08-07T06:28:01.375Z,3.10
2022-08-07T06:33:19.913Z,3.60
2022-08-07T06:36:06.683Z,2.90
2022-08-07T06:38:58.367Z,3.20
2022-08-07T06:42:01.984Z,3.40
2022-08-07T06:44:39.750Z,4.10
2022-08-07T06:47:10.026Z,3.60
2022-08-07T06:49:51.702Z,3.20
2022-08-07T06:52:35.960Z,3.10
2022-08-07T06:55:33.521Z,3.10
2022-08-07T06:58:16.689Z,3.50
2022-08-07T07:01:00.897Z,3.10
2022-08-07T07:03:49.137Z,3.20
2022-08-07T07:06:26.119Z,3.30
2022-08-07T07:08:56.771Z,2.70
2022-08-07T07:12:07.673Z,3.40
2022-08-07T07:14:22.014Z,3.90
2022-08-07T07:16:53.792Z,2.80
2022-08-07T07:19:56.157Z,2.70
2022-08-07T07:22:37.000Z,2.90
2022-08-07T07:26:33.188Z,3.10
2022-08-07T07:28:42.206Z,3.00
2022-08-07T07:31:05.419Z,3.00
2022-08-07T07:33:38.418Z,2.80
2022-08-07T07:36:17.307Z,2.60
2022-08-07T07:38:47.548Z,2.30
2022-08-07T07:41:18.441Z,1.90
2022-08-07T07:44:17.161Z,3.10
2022-08-07T07:46:55.260Z,2.50
2022-08-07T07:50:34.218Z,3.00
2022-08-07T07:52:27.153Z,2.30
2022-08-07T07:54:56.330Z,2.10
2022-08-07T07:57:51.593Z,2.20
2022-08-07T08:00:29.230Z,2.30
2022-08-07T08:03:08.670Z,2.60
2022-08-07T08:05:53.714Z,1.90
2022-08-07T08:08:37.029Z,2.90
2022-08-07T08:11:16.547Z,2.40
2022-08-07T08:14:07.614Z,2.30
2022-08-07T08:16:40.986Z,2.30
2022-08-07T08:20:16.099Z,2.00
2022-08-07T08:22:56.013Z,2.10
2022-08-07T08:25:52.471Z,1.80
2022-08-07T08:28:38.059Z,1.70
2022-08-07T08:31:15.585Z,1.70
2022-08-07T08:33:57.824Z,2.00
2022-08-07T08:36:58.424Z,1.80
2022-08-07T08:39:39.860Z,1.60
2022-08-07T08:42:17.935Z,1.60
2022-08-07T08:45:04.116Z,1.60
2022-08-07T08:47:55.452Z,1.50
2022-08-07T08:50:48.450Z,1.90
2022-08-07T08:53:41.286Z,1.60
2022-08-07T08:56:18.188Z,1.90
2022-08-07T08:59:06.435Z,1.90
2022-08-07T09:01:58.548Z,1.10
2022-08-07T09:05:00.651Z,1.90
2022-08-07T09:07:58.169Z,2.00
2022-08-07T09:11:24.643Z,1.00
2022-08-07T09:14:31.596Z,1.40
2022-08-07T09:17:16.399Z,2.80
2022-08-07T09:20:01.843Z,0.90
2022-08-07T09:24:33.796Z,1.50
2022-08-07T09:26:47.807Z,1.50
2022-08-07T09:30:28.903Z,1.80
2022-08-07T09:33:05.375Z,1.40
2022-08-07T09:36:09.627Z,1.40
2022-08-07T09:39:11.521Z,1.40
2022-08-07T09:42:23.102Z,1.90
2022-08-07T09:47:25.420Z,1.20
2022-08-07T09:48:50.295Z,1.20
2022-08-07T09:52:15.230Z,1.00
2022-08-07T09:54:54.672Z,1.20
2022-08-07T09:57:46.816Z,1.40
2022-08-07T10:00:29.817Z,0.80
2022-08-07T10:04:03.572Z,1.10
2022-08-07T10:07:25.785Z,1.20
2022-08-07T10:10:21.351Z,1.10
2022-08-07T10:13:54.781Z,0.70
2022-08-07T10:16:54.851Z,1.40
2022-08-07T10:19:55.535Z,0.90
2022-08-07T10:22:52.426Z,1.20
2022-08-07T10:25:32.907Z,1.20
2022-08-07T10:28:25.996Z,1.60
2022-08-07T10:31:06.117Z,0.90
2022-08-07T10:34:05.785Z,0.70
2022-08-07T10:36:56.668Z,1.10
2022-08-07T10:40:02.963Z,1.20
2022-08-07T10:42:51.512Z,1.20
2022-08-07T10:45:45.012Z,1.20
2022-08-07T10:48:34.573Z,0.90
2022-08-07T10:51:39.502Z,1.20
2022-08-07T10:54:26.680Z,1.20
2022-08-07T10:57:34.463Z,1.00
2022-08-07T11:00:36.415Z,0.80
2022-08-07T11:04:05.382Z,0.90
2022-08-07T11:07:14.942Z,0.90
2022-08-07T11:10:20.213Z,0.90
2022-08-07T11:13:04.018Z,0.90
2022-08-07T11:15:40.650Z,1.40
2022-08-07T11:18:18.462Z,1.40
2022-08-07T11:21:09.874Z,0.80
2022-08-07T11:24:31.607Z,1.70
2022-08-07T11:28:02.357Z,1.20
2022-08-07T11:30:58.560Z,1.00
2022-08-07T11:34:00.147Z,1.20
2022-08-07T11:36:58.297Z,1.20
2022-08-07T11:40:03.668Z,0.90
2022-08-07T11:42:59.043Z,0.60
2022-08-07T11:45:35.972Z,0.80
2022-08-07T11:48:33.866Z,1.20
2022-08-07T11:51:40.863Z,1.30
2022-08-07T11:54:15.597Z,1.10
2022-08-07T11:57:05.081Z,1.00
2022-08-07T12:00:18.715Z,0.90
2022-08-07T12:03:41.820Z,0.70
2022-08-07T12:06:37.923Z,0.80
2022-08-07T12:09:23.538Z,0.90
2022-08-07T12:12:10.450Z,0.80
2022-08-07T12:15:00.276Z,0.90
2022-08-07T12:17:38.523Z,1.20
2022-08-07T12:20:30.060Z,0.90
2022-08-07T12:23:14.719Z,1.00
2022-08-07T12:26:05.942Z,0.90
2022-08-07T12:29:02.119Z,1.40
2022-08-07T12:31:52.972Z,1.10
2022-08-07T12:34:32.191Z,1.00
2022-08-07T12:37:08.481Z,0.70
2022-08-07T12:39:51.661Z,0.80
2022-08-07T12:42:27.690Z,1.00
2022-08-07T12:44:58.837Z,1.00
2022-08-07T12:47:44.112Z,1.20
2022-08-07T12:50:34.095Z,0.90
2022-08-07T12:53:29.331Z,1.20
2022-08-07T12:56:32.867Z,0.90
2022-08-07T12:59:08.282Z,0.90
2022-08-07T13:01:39.855Z,0.80
2022-08-07T13:04:33.990Z,1.30
2022-08-07T13:07:17.968Z,1.20
2022-08-07T13:10:51.328Z,0.90
2022-08-07T13:16:46.884Z,1.00
2022-08-07T13:19:52.894Z,0.90
2022-08-07T13:22:33.712Z,1.40
2022-08-07T13:25:15.273Z,0.80
2022-08-07T13:28:18.656Z,1.20
2022-08-07T13:31:02.082Z,0.90
2022-08-07T13:34:34.406Z,1.10
2022-08-07T13:36:47.812Z,0.80
2022-08-07T13:40:32.740Z,1.20
2022-08-07T13:42:30.396Z,0.90
2022-08-07T13:46:07.163Z,1.20
2022-08-07T13:48:06.886Z,1.10
2022-08-07T13:50:44.472Z,1.10
2022-08-07T13:53:35.913Z,1.40
2022-08-07T13:56:36.052Z,1.60
2022-08-07T13:59:21.159Z,1.70
2022-08-07T14:02:03.438Z,1.10
2022-08-07T14:04:49.028Z,1.20
2022-08-07T14:07:31.569Z,1.10
2022-08-07T14:10:16.366Z,0.90
2022-08-07T14:13:00.606Z,1.60
2022-08-07T14:15:32.034Z,0.80
2022-08-07T14:18:29.116Z,1.20
2022-08-07T14:21:20.945Z,0.80
2022-08-07T14:24:08.855Z,1.50
2022-08-07T14:26:51.254Z,1.20
2022-08-07T14:30:09.560Z,1.70
2022-08-07T14:32:20.960Z,1.10
2022-08-07T14:34:54.680Z,0.90
2022-08-07T14:39:06.486Z,1.10
2022-08-07T14:46:37.928Z,1.20
2022-08-07T14:52:54.355Z,1.60
2022-08-07T14:55:56.358Z,1.30
2022-08-07T14:58:54.182Z,1.00
2022-08-07T15:02:07.165Z,1.50
2022-08-07T15:05:01.754Z,1.70
2022-08-07T15:07:47.675Z,0.70
2022-08-07T15:14:10.790Z,0.90
2022-08-07T15:17:18.326Z,0.90
2022-08-07T15:20:32.430Z,1.10
2022-08-07T15:25:59.462Z,1.80
2022-08-07T15:32:01.623Z,1.40
2022-08-07T15:34:50.686Z,1.10
2022-08-07T15:38:30.161Z,0.80
2022-08-07T15:44:24.360Z,0.70
2022-08-07T15:48:00.162Z,0.70
2022-08-07T15:51:01.128Z,0.60
2022-08-07T15:53:52.362Z,1.10
2022-08-07T15:56:36.583Z,0.80
2022-08-07T15:59:39.110Z,1.20
2022-08-07T16:02:25.414Z,1.20
2022-08-07T16:05:31.234Z,0.90
2022-08-07T16:08:38.669Z,0.90
2022-08-07T16:11:53.642Z,0.90
2022-08-07T16:14:36.863Z,1.30
2022-08-07T16:18:02.497Z,1.00
2022-08-07T16:20:43.330Z,0.90
2022-08-07T16:23:58.527Z,1.60
2022-08-07T16:26:59.893Z,1.60
2022-08-07T16:30:10.316Z,1.10
2022-08-07T16:32:35.844Z,3.00
2022-08-07T16:35:50.307Z,4.80
2022-08-07T16:39:04.429Z,3.50
2022-08-07T16:42:05.463Z,2.40
2022-08-07T16:45:30.960Z,2.00
2022-08-07T16:48:28.517Z,1.70
2022-08-07T16:51:54.446Z,2.00
2022-08-07T16:55:03.222Z,2.40
2022-08-07T16:58:02.281Z,1.70
2022-08-07T17:01:34.526Z,2.40
2022-08-07T17:21:55.942Z,1.00
2022-08-07T17:22:12.322Z,1.20
2022-08-07T17:25:47.915Z,0.80
2022-08-07T17:30:15.416Z,3.40
2022-08-07T17:34:19.854Z,1.90
2022-08-07T17:38:09.471Z,0.90
2022-08-07T17:42:04.014Z,1.50
2022-08-07T17:48:53.374Z,1.50
2022-08-07T17:53:06.401Z,1.30
2022-08-07T17:57:18.732Z,1.80
2022-08-07T18:01:36.754Z,1.70
2022-08-07T18:04:52.649Z,1.10
2022-08-07T18:08:24.109Z,2.20
2022-08-07T18:27:50.042Z,17.10
2022-08-07T18:31:26.672Z,28.60
2022-08-07T18:34:33.829Z,14.20
2022-08-07T18:38:55.108Z,7.30
2022-08-07T18:42:21.395Z,3.50
2022-08-07T18:57:40.229Z,1.60
2022-08-07T19:02:31.851Z,4.40
2022-08-07T19:04:57.436Z,3.80
2022-08-07T19:08:23.745Z,2.90
2022-08-07T19:11:35.816Z,2.00
2022-08-07T19:14:51.869Z,2.10
2022-08-07T19:17:58.974Z,2.00
2022-08-07T19:21:56.173Z,6.10
2022-08-07T19:24:50.633Z,5.20
2022-08-07T19:28:30.134Z,4.70
2022-08-07T19:31:03.752Z,4.00
2022-08-07T19:34:10.302Z,2.60
2022-08-07T19:37:16.764Z,2.50
2022-08-07T19:43:56.820Z,2.00
2022-08-07T19:46:57.804Z,2.00
2022-08-07T19:49:57.702Z,1.70
2022-08-07T19:57:51.611Z,1.60
2022-08-07T20:00:29.012Z,1.80
2022-08-07T20:03:05.346Z,1.50
2022-08-07T20:06:05.150Z,1.80
2022-08-07T20:09:03.151Z,1.60
2022-08-07T20:12:22.487Z,1.70
2022-08-07T20:14:53.599Z,1.90
2022-08-07T20:17:43.825Z,2.50
2022-08-07T20:20:27.194Z,3.50
2022-08-07T20:23:41.738Z,4.10
2022-08-07T20:26:29.587Z,5.50
2022-08-07T20:29:48.312Z,7.80
2022-08-07T20:32:36.220Z,5.40
2022-08-07T20:35:26.386Z,3.60
2022-08-07T20:38:01.725Z,3.00
2022-08-07T20:41:03.607Z,2.40
2022-08-07T20:43:47.699Z,2.00
2022-08-07T20:46:32.276Z,1.70
2022-08-07T20:49:57.940Z,1.90
2022-08-07T20:52:50.459Z,1.50
2022-08-07T20:55:59.521Z,2.10
2022-08-07T21:00:04.500Z,2.40
2022-08-07T21:02:39.307Z,11.60
2022-08-07T21:05:51.365Z,7.50
2022-08-07T21:09:35.454Z,3.80
2022-08-07T21:12:47.199Z,3.10
2022-08-07T21:16:05.617Z,2.90
2022-08-07T21:19:32.058Z,3.20
2022-08-07T21:28:02.569Z,3.70
2022-08-07T22:22:01.774Z,2.10
2022-08-07T22:25:48.896Z,1.90
2022-08-07T22:28:38.067Z,2.00
2022-08-07T22:32:05.788Z,1.80
2022-08-07T22:35:23.164Z,1.70
2022-08-07T22:38:34.171Z,1.90
2022-08-07T22:42:03.815Z,1.70
2022-08-07T22:46:42.990Z,2.30
2022-08-07T22:49:39.961Z,2.10
2022-08-07T22:54:07.902Z,1.80
2022-08-07T22:57:02.349Z,2.10
2022-08-07T22:59:51.837Z,2.00
2022-08-07T23:02:48.867Z,2.30
2022-08-07T23:06:07.515Z,2.10
2022-08-07T23:10:06.383Z,2.10
2022-08-07T23:12:20.862Z,2.00
2022-08-07T23:15:06.776Z,2.00
2022-08-07T23:17:49.988Z,1.90
2022-08-07T23:20:52.827Z,2.30
2022-08-07T23:24:11.403Z,2.50
2022-08-07T23:26:55.071Z,2.40
2022-08-07T23:34:33.935Z,2.00
2022-08-07T23:36:01.762Z,2.00
2022-08-07T23:38:55.238Z,1.80
2022-08-07T23:41:47.625Z,2.30
2022-08-07T23:45:07.441Z,1.70
2022-08-07T23:47:52.518Z,3.10
2022-08-07T23:50:54.499Z,2.10
2022-08-07T23:53:54.301Z,2.10
2022-08-07T23:56:31.162Z,2.90
